Time;durP1;ratioP1;P1;durP2;ratioP2;P2;SDS_P1;SDS_P2;PMS_P1;PMS_P2;Temp;Humidity;BMP_temperature;BMP_pressure;BME280_temperature;BME280_humidity;BME280_pressure;Samples;Min_cycle;Max_cycle;Signal;HPM_P1;HPM_P2
2022/09/15 00:00:42;;;;;;;20.30;15.33;;;14.20;99.90;;;;;;5072832;28;20204;-68
2022/09/15 00:03:11;;;;;;;18.73;15.00;;;14.20;99.90;;;;;;5073160;28;20200;-68
2022/09/15 00:05:37;;;;;;;20.07;15.73;;;14.20;99.90;;;;;;5072541;28;20295;-69
2022/09/15 00:08:04;;;;;;;18.27;14.70;;;14.20;99.90;;;;;;5072448;28;20208;-69
2022/09/15 00:10:31;;;;;;;17.50;14.13;;;14.20;99.90;;;;;;5072224;28;20570;-66
2022/09/15 00:12:58;;;;;;;22.47;16.07;;;14.20;99.90;;;;;;5071940;28;20227;-68
2022/09/15 00:15:25;;;;;;;18.90;15.43;;;14.10;99.90;;;;;;5068347;28;20236;-68
2022/09/15 00:17:53;;;;;;;18.80;15.70;;;14.10;99.90;;;;;;5068148;28;20204;-69
2022/09/15 00:20:22;;;;;;;17.47;14.67;;;14.10;99.90;;;;;;5073139;28;20295;-72
2022/09/15 00:22:49;;;;;;;19.37;15.77;;;14.10;99.90;;;;;;5071524;28;20201;-71
2022/09/15 00:25:16;;;;;;;18.20;14.77;;;14.10;99.90;;;;;;5072516;28;20779;-72
2022/09/15 00:27:42;;;;;;;18.83;15.37;;;14.00;99.90;;;;;;5070605;28;20207;-68
2022/09/15 00:30:10;;;;;;;19.67;15.33;;;14.00;99.90;;;;;;5072012;28;20311;-67
2022/09/15 00:32:37;;;;;;;21.50;14.77;;;14.00;99.90;;;;;;5071840;28;20762;-68
2022/09/15 00:35:05;;;;;;;20.60;17.23;;;14.00;99.90;;;;;;5072227;28;20201;-68
2022/09/15 00:37:33;;;;;;;23.60;17.10;;;14.00;99.90;;;;;;5069590;28;20307;-69
2022/09/15 00:40:00;;;;;;;23.47;16.23;;;13.90;99.90;;;;;;5071104;28;20207;-68
2022/09/15 00:42:27;;;;;;;20.13;16.20;;;13.90;99.90;;;;;;5072013;28;20581;-68
2022/09/15 00:44:57;;;;;;;19.27;16.30;;;13.90;99.90;;;;;;5071915;28;20228;-68
2022/09/15 00:47:28;;;;;;;20.17;16.47;;;13.90;99.90;;;;;;5071688;28;20288;-69
2022/09/15 00:50:00;;;;;;;21.77;16.83;;;13.90;99.90;;;;;;5071108;28;20292;-69
2022/09/15 00:52:32;;;;;;;20.93;16.30;;;13.90;99.90;;;;;;5071966;28;20295;-69
2022/09/15 00:55:04;;;;;;;21.37;16.87;;;13.90;99.90;;;;;;5069808;28;20208;-71
2022/09/15 00:57:35;;;;;;;20.57;16.40;;;13.90;99.90;;;;;;5071723;28;20287;-70
2022/09/15 01:00:06;;;;;;;20.43;16.37;;;13.90;99.90;;;;;;5072222;28;20315;-69
2022/09/15 01:02:34;;;;;;;20.70;16.73;;;13.90;99.90;;;;;;5071481;28;20213;-70
2022/09/15 01:05:04;;;;;;;23.30;17.17;;;13.90;99.90;;;;;;5071755;28;20237;-69
2022/09/15 01:07:35;;;;;;;23.03;17.13;;;13.90;99.90;;;;;;5071490;28;20308;-70
2022/09/15 01:10:07;;;;;;;20.33;16.20;;;13.90;99.90;;;;;;5071862;28;20631;-70
2022/09/15 01:12:34;;;;;;;21.03;16.83;;;13.90;99.90;;;;;;5070749;28;20279;-70
2022/09/15 01:15:01;;;;;;;20.60;16.20;;;13.90;99.90;;;;;;5071725;28;20205;-71
2022/09/15 01:17:39;;;;;;;19.07;15.90;;;14.00;99.90;;;;;;5071382;28;20215;-71
2022/09/15 01:20:52;;;;;;;17.63;15.17;;;14.00;99.90;;;;;;5071940;28;20275;-72
2022/09/15 01:23:37;;;;;;;19.17;15.70;;;14.00;99.90;;;;;;5071531;28;20189;-70
2022/09/15 01:26:24;;;;;;;19.47;16.43;;;14.00;99.90;;;;;;5072175;28;20745;-69
2022/09/15 01:29:27;;;;;;;19.07;15.83;;;14.00;99.90;;;;;;5070721;28;20189;-71
2022/09/15 01:34:55;;;;;;;18.87;15.40;;;14.00;99.90;;;;;;5069775;28;20223;-70
2022/09/15 01:37:28;;;;;;;18.53;15.37;;;14.00;99.90;;;;;;5071292;28;20197;-69
2022/09/15 01:39:59;;;;;;;20.23;15.60;;;14.00;99.90;;;;;;5070923;28;20211;-69
2022/09/15 01:42:28;;;;;;;18.27;14.97;;;14.00;99.90;;;;;;5070881;28;20204;-69
2022/09/15 01:45:00;;;;;;;20.13;15.07;;;14.00;99.90;;;;;;5068890;28;20635;-68
2022/09/15 01:47:29;;;;;;;19.30;15.00;;;14.00;99.90;;;;;;5070456;28;20334;-68
2022/09/15 01:50:00;;;;;;;17.10;14.10;;;14.00;99.90;;;;;;5071641;28;20671;-69
2022/09/15 01:52:28;;;;;;;15.30;13.30;;;14.00;99.90;;;;;;5070750;28;20199;-68
2022/09/15 01:54:58;;;;;;;16.13;13.80;;;14.10;99.90;;;;;;5069847;28;20290;-68
2022/09/15 01:57:26;;;;;;;15.90;13.30;;;14.10;99.90;;;;;;5071190;28;20204;-69
2022/09/15 01:59:56;;;;;;;17.87;13.93;;;14.10;99.90;;;;;;5070503;28;20823;-68
2022/09/15 02:02:27;;;;;;;18.80;15.00;;;14.10;99.90;;;;;;5070900;28;20291;-69
2022/09/15 02:04:58;;;;;;;20.13;16.17;;;14.10;99.90;;;;;;5070661;28;20267;-69
2022/09/15 02:07:34;;;;;;;21.30;16.60;;;14.20;99.90;;;;;;5068564;28;20651;-68
2022/09/15 02:10:04;;;;;;;18.67;15.47;;;14.10;99.90;;;;;;5071088;28;20615;-69
2022/09/15 02:12:37;;;;;;;17.67;14.80;;;14.10;99.90;;;;;;5070770;28;20777;-69
2022/09/15 02:15:10;;;;;;;17.30;14.00;;;14.10;99.90;;;;;;5070817;28;20188;-68
2022/09/15 02:17:41;;;;;;;15.90;14.10;;;14.10;99.90;;;;;;5068850;28;20239;-69
2022/09/15 02:20:14;;;;;;;15.77;13.33;;;14.10;99.90;;;;;;5069707;28;20196;-69
2022/09/15 02:22:46;;;;;;;17.73;15.33;;;14.10;99.90;;;;;;5070161;28;20205;-68
2022/09/15 02:25:17;;;;;;;19.87;14.77;;;14.10;99.90;;;;;;5071029;28;20189;-69
2022/09/15 02:27:47;;;;;;;17.60;13.83;;;14.10;99.90;;;;;;5070256;28;20726;-69
2022/09/15 02:30:18;;;;;;;17.63;13.47;;;14.10;99.90;;;;;;5071696;28;20634;-70
2022/09/15 02:32:48;;;;;;;17.63;14.00;;;14.20;99.90;;;;;;5070765;28;20208;-67
2022/09/15 02:35:17;;;;;;;18.90;13.70;;;14.20;99.90;;;;;;5071005;28;20200;-67
2022/09/15 02:37:45;;;;;;;19.23;13.50;;;14.20;99.90;;;;;;5069123;28;20293;-67
2022/09/15 02:40:12;;;;;;;16.10;13.03;;;14.20;99.90;;;;;;5071531;28;20205;-69
2022/09/15 02:42:39;;;;;;;16.67;14.33;;;14.20;99.90;;;;;;5071323;28;20851;-69
2022/09/15 02:45:07;;;;;;;18.27;14.10;;;14.30;99.90;;;;;;5070916;28;20328;-70
2022/09/15 02:47:35;;;;;;;19.93;16.03;;;14.30;99.90;;;;;;5069701;28;20287;-69
2022/09/15 02:50:02;;;;;;;18.70;14.27;;;14.30;99.90;;;;;;5070935;28;20574;-70
2022/09/15 02:52:29;;;;;;;19.37;15.07;;;14.30;99.90;;;;;;5071320;28;20288;-69
2022/09/15 02:54:56;;;;;;;20.40;16.27;;;14.30;99.90;;;;;;5070772;28;20316;-68
2022/09/15 02:57:23;;;;;;;17.10;14.67;;;14.40;99.90;;;;;;5068958;28;20301;-69
2022/09/15 03:02:35;;;;;;;17.60;14.10;;;14.40;99.90;;;;;;5069896;28;20289;-69
2022/09/15 03:05:02;;;;;;;16.87;13.87;;;14.40;99.90;;;;;;5070809;28;20259;-67
2022/09/15 03:07:30;;;;;;;17.87;14.60;;;14.40;99.90;;;;;;5069211;28;20288;-68
2022/09/15 03:09:58;;;;;;;19.27;15.10;;;14.40;99.90;;;;;;5070959;28;20209;-70
2022/09/15 03:12:25;;;;;;;19.63;15.87;;;14.40;99.90;;;;;;5071519;28;20209;-69
2022/09/15 03:14:52;;;;;;;20.87;16.10;;;14.30;99.90;;;;;;5071276;28;20231;-68
2022/09/15 03:17:19;;;;;;;19.63;16.57;;;14.30;99.90;;;;;;5069135;28;20196;-69
2022/09/15 03:19:48;;;;;;;17.63;14.90;;;14.20;99.90;;;;;;5073792;28;20761;-70
2022/09/15 03:22:15;;;;;;;17.70;15.23;;;14.20;99.90;;;;;;5073998;28;20209;-69
2022/09/15 03:24:42;;;;;;;18.27;15.80;;;14.20;99.90;;;;;;5074674;28;20287;-70
2022/09/15 03:27:09;;;;;;;19.77;16.27;;;14.10;99.90;;;;;;5073871;28;20213;-69
2022/09/15 03:29:36;;;;;;;21.23;17.03;;;14.10;99.90;;;;;;5073590;28;20260;-68
2022/09/15 03:32:03;;;;;;;24.37;18.27;;;14.10;99.90;;;;;;5072077;28;20647;-68
2022/09/15 03:34:30;;;;;;;29.37;21.83;;;14.00;99.90;;;;;;5072012;28;20666;-69
2022/09/15 03:36:58;;;;;;;29.43;22.30;;;14.00;99.90;;;;;;5075229;28;20211;-69
2022/09/15 03:39:25;;;;;;;33.00;23.03;;;14.00;99.90;;;;;;5070363;28;20292;-69
2022/09/15 03:41:52;;;;;;;38.20;26.27;;;14.00;99.90;;;;;;5073967;28;20243;-69
2022/09/15 03:44:19;;;;;;;40.20;26.17;;;13.90;99.90;;;;;;5071843;28;20197;-69
2022/09/15 03:46:45;;;;;;;32.13;24.50;;;13.90;99.90;;;;;;5072841;28;20288;-68
2022/09/15 03:49:12;;;;;;;37.50;26.37;;;13.90;99.90;;;;;;5066740;28;20295;-70
2022/09/15 03:51:40;;;;;;;37.87;26.47;;;13.90;99.90;;;;;;5072720;28;20197;-71
2022/09/15 03:54:08;;;;;;;32.90;23.23;;;13.90;99.90;;;;;;5072617;28;20749;-68
2022/09/15 03:56:35;;;;;;;31.20;23.10;;;13.80;99.90;;;;;;5073180;28;20754;-69
2022/09/15 03:59:04;;;;;;;32.23;22.43;;;13.80;99.90;;;;;;5074361;28;20258;-69
2022/09/15 04:01:32;;;;;;;27.47;21.17;;;13.80;99.90;;;;;;5073622;28;20266;-68
2022/09/15 04:03:59;;;;;;;26.23;21.17;;;13.90;99.90;;;;;;5073394;28;20605;-68
2022/09/15 04:06:26;;;;;;;27.60;20.50;;;13.90;99.90;;;;;;5072756;28;20213;-69
2022/09/15 04:08:54;;;;;;;24.00;19.27;;;13.90;99.90;;;;;;5071623;28;20303;-69
2022/09/15 04:11:23;;;;;;;26.07;20.50;;;13.90;99.90;;;;;;5072547;28;20764;-71
2022/09/15 04:13:50;;;;;;;23.63;18.37;;;14.00;99.90;;;;;;5073976;28;20275;-70
2022/09/15 04:16:22;;;;;;;25.83;18.83;;;14.00;99.90;;;;;;5073279;28;20629;-70
2022/09/15 04:18:49;;;;;;;26.07;18.93;;;14.00;99.90;;;;;;5073527;28;20200;-72
2022/09/15 04:21:17;;;;;;;20.70;17.17;;;14.00;99.90;;;;;;5072337;28;20211;-69
2022/09/15 04:23:44;;;;;;;22.97;16.73;;;14.10;99.90;;;;;;5073611;28;20203;-69
2022/09/15 04:26:14;;;;;;;22.03;18.07;;;14.10;99.90;;;;;;5072930;28;20295;-70
2022/09/15 04:28:43;;;;;;;21.37;16.73;;;14.20;99.90;;;;;;5073534;28;20334;-71
2022/09/15 04:31:12;;;;;;;22.77;15.40;;;14.20;99.90;;;;;;5071502;28;20208;-69
2022/09/15 04:33:40;;;;;;;16.43;14.50;;;14.20;99.90;;;;;;5072908;28;20299;-69
2022/09/15 04:36:09;;;;;;;18.10;14.90;;;14.20;99.90;;;;;;5072874;28;20633;-69
2022/09/15 04:38:36;;;;;;;21.33;17.27;;;14.30;99.90;;;;;;5073032;28;20573;-69
2022/09/15 04:41:04;;;;;;;20.00;15.90;;;14.30;99.90;;;;;;5070753;28;20236;-69
2022/09/15 04:43:31;;;;;;;16.17;13.60;;;14.40;99.90;;;;;;5072465;28;20209;-71
2022/09/15 04:46:00;;;;;;;18.70;14.77;;;14.40;99.90;;;;;;5072388;28;20258;-68
2022/09/15 04:48:27;;;;;;;20.47;16.97;;;14.50;99.90;;;;;;5072871;28;20790;-68
2022/09/15 04:50:54;;;;;;;19.53;16.37;;;14.50;99.90;;;;;;5072412;28;20205;-70
2022/09/15 04:53:21;;;;;;;23.97;17.60;;;14.50;99.90;;;;;;5071839;28;20299;-69
2022/09/15 04:55:48;;;;;;;18.73;14.60;;;14.60;99.90;;;;;;5072247;28;20252;-71
2022/09/15 04:58:15;;;;;;;19.60;15.73;;;14.60;99.90;;;;;;5072354;28;20242;-67
2022/09/15 05:00:42;;;;;;;16.60;14.40;;;14.60;99.90;;;;;;5071322;28;20622;-68
2022/09/15 05:03:12;;;;;;;16.13;13.70;;;14.70;99.90;;;;;;5073170;28;20196;-72
2022/09/15 05:05:40;;;;;;;15.43;13.30;;;14.70;99.90;;;;;;5071999;28;20256;-74
2022/09/15 05:08:07;;;;;;;18.57;15.17;;;14.80;99.90;;;;;;5073110;28;20225;-72
2022/09/15 05:10:36;;;;;;;17.63;14.17;;;14.80;99.90;;;;;;5072458;28;20291;-73
2022/09/15 05:13:03;;;;;;;18.23;13.80;;;14.80;99.90;;;;;;5072788;28;20647;-73
2022/09/15 05:15:30;;;;;;;16.63;12.70;;;14.90;99.90;;;;;;5071984;28;20237;-70
2022/09/15 05:17:58;;;;;;;15.37;13.27;;;14.90;99.90;;;;;;5071481;28;20204;-69
2022/09/15 05:20:26;;;;;;;18.50;13.57;;;15.00;99.90;;;;;;5071852;28;20305;-72
2022/09/15 05:22:53;;;;;;;15.70;12.73;;;15.00;99.90;;;;;;5072453;28;20208;-69
2022/09/15 05:25:19;;;;;;;18.13;13.43;;;15.10;99.90;;;;;;5071307;28;20233;-70
2022/09/15 05:27:46;;;;;;;19.70;13.10;;;15.20;99.90;;;;;;5071977;28;20291;-68
2022/09/15 05:30:13;;;;;;;16.73;13.53;;;15.20;99.90;;;;;;5071383;28;20638;-68
2022/09/15 05:32:40;;;;;;;17.53;14.03;;;15.30;99.90;;;;;;5071805;28;20220;-69
2022/09/15 05:35:07;;;;;;;18.53;12.50;;;15.30;99.90;;;;;;5071211;28;20218;-71
2022/09/15 05:37:35;;;;;;;15.83;12.87;;;15.30;99.90;;;;;;5072723;28;20659;-70
2022/09/15 05:40:02;;;;;;;18.07;12.47;;;15.40;99.90;;;;;;5071147;28;20701;-70
2022/09/15 05:42:30;;;;;;;17.23;12.63;;;15.40;99.90;;;;;;5071798;28;20632;-71
2022/09/15 05:44:57;;;;;;;18.03;12.70;;;15.40;99.90;;;;;;5072476;28;20218;-71
2022/09/15 05:47:24;;;;;;;18.87;13.67;;;15.40;99.90;;;;;;5072001;28;20303;-70
2022/09/15 05:49:53;;;;;;;18.53;13.47;;;15.50;99.90;;;;;;5070278;28;20576;-69
2022/09/15 05:52:20;;;;;;;16.37;11.73;;;15.50;99.90;;;;;;5071643;28;20667;-69
2022/09/15 05:54:48;;;;;;;16.87;12.73;;;15.50;99.90;;;;;;5071086;28;20242;-68
2022/09/15 05:57:15;;;;;;;18.97;13.10;;;15.60;99.90;;;;;;5071322;28;20209;-70
2022/09/15 05:59:42;;;;;;;15.60;12.80;;;15.60;99.90;;;;;;5071702;28;20236;-69
2022/09/15 06:02:10;;;;;;;15.57;12.77;;;15.60;99.90;;;;;;5071685;28;20308;-69
2022/09/15 06:04:37;;;;;;;15.70;12.87;;;15.70;99.90;;;;;;5071156;28;20604;-69
2022/09/15 06:07:04;;;;;;;17.10;12.20;;;15.70;99.90;;;;;;5069047;28;20301;-70
2022/09/15 06:09:31;;;;;;;17.13;12.73;;;15.80;99.90;;;;;;5071030;28;20212;-69
2022/09/15 06:11:59;;;;;;;15.37;11.83;;;15.80;99.90;;;;;;5071698;28;20604;-71
2022/09/15 06:14:26;;;;;;;16.83;12.30;;;15.80;99.90;;;;;;5070481;28;20685;-71
2022/09/15 06:16:53;;;;;;;14.43;11.47;;;15.80;99.90;;;;;;5071793;28;20758;-71
2022/09/15 06:19:20;;;;;;;13.77;10.90;;;15.90;99.90;;;;;;5070520;28;20301;-68
2022/09/15 06:21:48;;;;;;;19.73;12.77;;;15.90;99.90;;;;;;5071869;28;20722;-69
2022/09/15 06:24:14;;;;;;;14.70;11.33;;;16.00;99.90;;;;;;5071615;28;20295;-69
2022/09/15 06:26:41;;;;;;;13.67;11.13;;;16.00;99.90;;;;;;5071798;28;20637;-69
2022/09/15 06:29:12;;;;;;;18.03;12.00;;;16.00;99.90;;;;;;5071367;28;20205;-70
2022/09/15 06:31:40;;;;;;;18.10;11.17;;;16.10;99.90;;;;;;5070670;28;20647;-70
2022/09/15 06:34:08;;;;;;;16.17;11.60;;;16.10;99.90;;;;;;5071010;28;20206;-70
2022/09/15 06:36:37;;;;;;;14.57;11.13;;;16.10;99.90;;;;;;5070172;28;20214;-69
2022/09/15 06:39:04;;;;;;;15.67;11.77;;;16.20;99.90;;;;;;5071270;28;20211;-70
2022/09/15 06:41:31;;;;;;;20.83;13.67;;;16.20;99.90;;;;;;5071523;28;20631;-68
2022/09/15 06:43:58;;;;;;;15.97;12.43;;;16.20;99.90;;;;;;5070403;28;20607;-70
2022/09/15 06:46:28;;;;;;;18.23;12.73;;;16.30;99.90;;;;;;5068552;28;20705;-69
2022/09/15 06:48:55;;;;;;;22.77;15.47;;;16.30;99.90;;;;;;5071158;28;20216;-68
2022/09/15 06:51:24;;;;;;;43.27;23.70;;;16.30;99.90;;;;;;5071385;28;20212;-69
2022/09/15 06:53:53;;;;;;;28.27;18.40;;;16.30;99.90;;;;;;5074079;28;20732;-69
2022/09/15 06:56:21;;;;;;;23.77;15.77;;;16.30;99.90;;;;;;5074142;28;20422;-69
2022/09/15 06:58:49;;;;;;;19.27;12.97;;;16.40;99.90;;;;;;5073032;28;20298;-70
2022/09/15 07:01:21;;;;;;;18.07;12.67;;;16.40;99.90;;;;;;5075085;28;20211;-70
2022/09/15 07:03:49;;;;;;;17.50;13.50;;;16.50;99.90;;;;;;5074706;28;20241;-69
2022/09/15 07:06:16;;;;;;;16.17;12.87;;;16.60;99.90;;;;;;5073223;28;21105;-70
2022/09/15 07:08:45;;;;;;;21.57;13.03;;;16.70;99.90;;;;;;5073007;28;20209;-69
2022/09/15 07:11:13;;;;;;;13.53;11.77;;;16.70;99.90;;;;;;5074650;28;20207;-67
2022/09/15 07:13:40;;;;;;;17.13;13.20;;;16.80;99.90;;;;;;5074475;28;20284;-69
2022/09/15 07:16:12;;;;;;;19.63;13.83;;;16.80;99.90;;;;;;5074347;28;20722;-70
2022/09/15 07:18:39;;;;;;;18.63;13.00;;;16.80;99.90;;;;;;5073753;28;20228;-70
2022/09/15 07:21:11;;;;;;;14.67;11.83;;;16.90;99.90;;;;;;5074333;28;20203;-69
2022/09/15 07:23:38;;;;;;;19.60;13.07;;;17.00;99.90;;;;;;5074573;28;20213;-69
2022/09/15 07:26:07;;;;;;;15.93;11.70;;;17.00;99.90;;;;;;5074309;28;20632;-72
2022/09/15 07:28:35;;;;;;;18.33;13.03;;;17.10;99.90;;;;;;5074346;28;20300;-71
2022/09/15 07:31:02;;;;;;;17.83;12.73;;;17.10;99.90;;;;;;5073759;28;20230;-70
2022/09/15 07:33:29;;;;;;;13.20;11.23;;;17.20;99.90;;;;;;5072858;28;20204;-69
2022/09/15 07:35:56;;;;;;;17.53;11.40;;;17.20;99.90;;;;;;5073851;28;20318;-69
2022/09/15 07:38:24;;;;;;;18.73;12.73;;;17.20;99.90;;;;;;5074379;28;20228;-68
2022/09/15 07:40:51;;;;;;;15.50;12.17;;;17.20;99.90;;;;;;5073707;28;20299;-71
2022/09/15 07:43:18;;;;;;;16.70;12.47;;;17.30;99.90;;;;;;5072235;28;20213;-69
2022/09/15 07:45:45;;;;;;;17.63;12.10;;;17.30;99.90;;;;;;5073344;28;20676;-70
2022/09/15 07:48:11;;;;;;;17.20;12.67;;;17.40;99.90;;;;;;5073769;28;20239;-69
2022/09/15 07:50:38;;;;;;;17.23;11.73;;;17.40;99.90;;;;;;5073103;28;20207;-69
2022/09/15 07:53:06;;;;;;;18.97;12.43;;;17.40;99.90;;;;;;5072122;28;20647;-69
2022/09/15 07:55:34;;;;;;;14.43;11.20;;;17.40;99.90;;;;;;5072926;28;20259;-72
2022/09/15 07:58:03;;;;;;;14.50;11.60;;;17.40;99.90;;;;;;5073678;28;20250;-70
2022/09/15 08:00:30;;;;;;;12.93;10.67;;;17.50;99.90;;;;;;5073900;28;20209;-71
2022/09/15 08:02:57;;;;;;;15.17;11.27;;;17.50;99.90;;;;;;5071650;28;20228;-70
2022/09/15 08:05:27;;;;;;;14.73;11.40;;;17.60;99.90;;;;;;5072249;28;20742;-70
2022/09/15 08:07:54;;;;;;;18.00;12.93;;;17.60;99.90;;;;;;5059530;28;20570;-69
2022/09/15 08:10:21;;;;;;;18.83;13.10;;;17.70;99.90;;;;;;5053861;28;20664;-69
2022/09/15 08:12:50;;;;;;;18.50;12.70;;;17.70;99.90;;;;;;5053626;28;20227;-69
2022/09/15 08:15:17;;;;;;;17.13;13.23;;;17.70;99.90;;;;;;5066422;28;20788;-69
2022/09/15 08:17:43;;;;;;;19.67;13.30;;;17.80;99.90;;;;;;5072781;28;20294;-70
2022/09/15 08:20:11;;;;;;;17.40;13.23;;;17.70;99.90;;;;;;5073461;28;20204;-69
2022/09/15 08:22:38;;;;;;;21.70;14.17;;;17.70;99.90;;;;;;5072264;28;20210;-70
2022/09/15 08:25:06;;;;;;;21.13;14.07;;;17.70;99.90;;;;;;5073535;28;20287;-71
2022/09/15 08:27:33;;;;;;;19.77;13.37;;;17.80;99.90;;;;;;5072158;28;20213;-71
2022/09/15 08:30:01;;;;;;;16.70;12.40;;;17.80;99.90;;;;;;5073050;28;20239;-70
2022/09/15 08:32:28;;;;;;;19.67;12.17;;;17.80;99.90;;;;;;5072636;28;20580;-70
2022/09/15 08:34:55;;;;;;;18.20;12.80;;;17.90;99.90;;;;;;5063101;28;20304;-70
2022/09/15 08:37:22;;;;;;;15.20;12.40;;;17.90;99.90;;;;;;5072508;28;20230;-69
2022/09/15 08:39:49;;;;;;;15.43;12.03;;;17.90;99.90;;;;;;5068493;28;20291;-71
2022/09/15 08:42:18;;;;;;;15.30;12.33;;;18.00;99.90;;;;;;5073346;28;20682;-69
2022/09/15 08:44:50;;;;;;;15.90;12.30;;;18.00;99.90;;;;;;5072821;28;20316;-69
2022/09/15 08:47:23;;;;;;;17.00;12.07;;;18.00;99.90;;;;;;5053024;28;20284;-70
2022/09/15 08:49:58;;;;;;;21.10;12.93;;;18.00;99.90;;;;;;5068151;28;20210;-69
2022/09/15 08:52:32;;;;;;;15.83;11.43;;;18.10;99.90;;;;;;5072980;28;20359;-68
2022/09/15 08:55:04;;;;;;;11.30;10.07;;;18.10;99.90;;;;;;5083375;28;20292;-69
2022/09/15 08:57:31;;;;;;;10.67;9.17;;;18.20;99.90;;;;;;5072610;28;20281;-70
2022/09/15 08:59:59;;;;;;;12.87;9.83;;;18.30;99.90;;;;;;5076148;28;20715;-70
2022/09/15 09:02:51;;;;;;;11.53;8.97;;;18.30;99.90;;;;;;5078677;28;20215;-69
2022/09/15 09:05:51;;;;;;;12.93;9.60;;;18.40;99.90;;;;;;5072759;28;20323;-71
2022/09/15 09:08:40;;;;;;;12.27;8.40;;;18.50;99.90;;;;;;5050138;28;20193;-70
2022/09/15 09:11:16;;;;;;;12.33;8.93;;;18.60;99.90;;;;;;5070070;28;20206;-70
2022/09/15 09:13:49;;;;;;;13.03;8.43;;;18.70;99.90;;;;;;5071600;28;20757;-70
2022/09/15 09:16:32;;;;;;;10.43;8.30;;;18.70;99.90;;;;;;5061280;28;20700;-70
2022/09/15 09:19:13;;;;;;;9.30;7.80;;;18.80;99.90;;;;;;5073624;28;20295;-69
2022/09/15 09:21:43;;;;;;;9.63;7.40;;;18.80;99.90;;;;;;5072787;28;20195;-71
2022/09/15 09:24:15;;;;;;;10.30;7.47;;;18.90;99.90;;;;;;5071130;28;20218;-70
2022/09/15 09:26:44;;;;;;;9.97;6.80;;;19.00;99.90;;;;;;5071288;28;20210;-71
2022/09/15 09:29:16;;;;;;;9.83;6.90;;;19.00;99.90;;;;;;5072409;28;20711;-69
2022/09/15 09:31:46;;;;;;;8.50;6.37;;;19.10;99.90;;;;;;5071233;28;20634;-70
2022/09/15 09:34:22;;;;;;;9.80;6.47;;;19.10;99.90;;;;;;5072573;28;20210;-70
2022/09/15 09:36:54;;;;;;;6.90;6.03;;;19.20;99.90;;;;;;5071340;28;20242;-69
2022/09/15 09:39:21;;;;;;;9.27;6.50;;;19.20;99.90;;;;;;5072412;28;20192;-72
2022/09/15 09:41:50;;;;;;;8.47;6.00;;;19.20;99.90;;;;;;5072408;28;20662;-70
2022/09/15 09:44:18;;;;;;;7.17;5.60;;;19.30;99.90;;;;;;5072269;28;20212;-70
2022/09/15 09:46:45;;;;;;;8.67;5.80;;;19.30;99.90;;;;;;5071926;28;20208;-69
2022/09/15 09:49:16;;;;;;;8.63;5.90;;;19.40;99.90;;;;;;5082828;28;20203;-70
2022/09/15 09:51:51;;;;;;;7.60;5.67;;;19.40;99.90;;;;;;5056880;28;20205;-71
2022/09/15 09:54:20;;;;;;;10.70;6.47;;;19.50;99.90;;;;;;5072384;28;20199;-72
2022/09/15 09:56:48;;;;;;;7.87;6.27;;;19.50;99.90;;;;;;5068303;28;20575;-71
2022/09/15 09:59:39;;;;;;;7.70;6.35;;;19.50;99.90;;;;;;5071613;28;20810;-70
2022/09/15 10:02:15;;;;;;;8.60;6.10;;;19.60;99.90;;;;;;5061680;28;20196;-71
2022/09/15 10:04:44;;;;;;;7.63;5.57;;;19.60;99.90;;;;;;5076467;28;20329;-72
2022/09/15 10:07:14;;;;;;;8.10;5.57;;;19.70;99.90;;;;;;5073514;28;20201;-71
2022/09/15 10:09:49;;;;;;;8.90;6.00;;;19.70;99.90;;;;;;5070874;28;20725;-71
2022/09/15 10:12:21;;;;;;;9.30;5.80;;;19.80;99.90;;;;;;5071618;28;20293;-70
2022/09/15 10:14:52;;;;;;;10.03;5.30;;;19.80;99.90;;;;;;5071470;28;20197;-71
2022/09/15 10:17:21;;;;;;;9.53;6.13;;;19.90;99.90;;;;;;5071739;28;20217;-71
2022/09/15 10:19:51;;;;;;;7.20;5.77;;;19.80;99.90;;;;;;5071996;28;20676;-73
2022/09/15 10:22:27;;;;;;;6.07;4.90;;;19.80;99.90;;;;;;5077622;28;20242;-72
2022/09/15 10:24:54;;;;;;;7.90;5.57;;;19.80;99.90;;;;;;5074965;28;20203;-71
2022/09/15 10:27:28;;;;;;;8.03;5.80;;;19.80;99.90;;;;;;5073424;28;20279;-70
2022/09/15 10:29:58;;;;;;;7.53;5.40;;;19.80;99.90;;;;;;5076141;28;20716;-71
2022/09/15 10:32:28;;;;;;;7.60;5.60;;;19.80;99.90;;;;;;5058652;28;20295;-72
2022/09/15 10:35:06;;;;;;;6.60;5.33;;;19.70;99.90;;;;;;5073910;28;20658;-74
2022/09/15 10:37:43;;;;;;;11.90;5.77;;;19.80;99.90;;;;;;5072363;28;20308;-71
2022/09/15 10:40:37;;;;;;;6.47;5.00;;;19.80;99.90;;;;;;5074330;28;20243;-71
2022/09/15 10:43:23;;;;;;;8.00;5.93;;;19.80;99.90;;;;;;5066999;28;20286;-72
2022/09/15 10:46:00;;;;;;;9.40;5.70;;;19.80;99.90;;;;;;5075903;28;20219;-70
2022/09/15 10:48:37;;;;;;;9.30;6.00;;;19.80;99.90;;;;;;5066814;28;20208;-70
2022/09/15 10:51:16;;;;;;;9.70;5.40;;;19.90;99.90;;;;;;5055996;28;20200;-70
2022/09/15 10:54:07;;;;;;;9.83;5.47;;;19.90;99.90;;;;;;5056016;28;20655;-70
2022/09/15 10:56:38;;;;;;;7.10;5.50;;;20.00;99.90;;;;;;5069264;28;20312;-70
2022/09/15 10:59:26;;;;;;;6.70;5.00;;;20.00;99.90;;;;;;5074907;28;20231;-71
2022/09/15 11:02:18;;;;;;;6.17;5.30;;;20.00;99.90;;;;;;5076040;28;20214;-72
2022/09/15 11:05:11;;;;;;;9.73;5.80;;;20.00;99.90;;;;;;5075188;28;20248;-72
2022/09/15 11:07:47;;;;;;;6.70;5.03;;;20.00;99.90;;;;;;5069724;28;20205;-71
2022/09/15 11:10:21;;;;;;;6.00;5.30;;;20.00;99.90;;;;;;5080052;28;20296;-72
2022/09/15 11:13:00;;;;;;;5.50;4.83;;;20.00;99.90;;;;;;5074514;28;20259;-70
2022/09/15 11:15:47;;;;;;;7.30;5.13;;;19.90;99.90;;;;;;5078614;28;20288;-73
2022/09/15 11:18:37;;;;;;;5.70;5.10;;;19.90;99.90;;;;;;5075212;28;20225;-72
2022/09/15 11:21:17;;;;;;;6.40;4.40;;;20.00;99.90;;;;;;5069561;28;20256;-71
2022/09/15 11:23:48;;;;;;;9.57;4.47;;;20.00;99.90;;;;;;5077586;28;20294;-71
2022/09/15 11:26:24;;;;;;;5.77;4.60;;;20.00;99.90;;;;;;5093319;28;20274;-72
2022/09/15 11:28:56;;;;;;;6.43;4.87;;;20.00;99.90;;;;;;5088796;28;20286;-72
2022/09/15 11:31:27;;;;;;;9.80;5.43;;;20.00;99.90;;;;;;5075455;28;20288;-72
2022/09/15 11:33:58;;;;;;;7.77;5.60;;;20.00;99.90;;;;;;5073644;28;20211;-71
2022/09/15 11:36:32;;;;;;;6.80;5.80;;;20.00;99.90;;;;;;5074135;28;20304;-69
2022/09/15 11:39:05;;;;;;;7.80;5.10;;;19.90;99.90;;;;;;5073694;28;20192;-71
2022/09/15 11:41:39;;;;;;;7.13;5.00;;;20.00;99.90;;;;;;5074671;28;20193;-72
2022/09/15 11:44:18;;;;;;;8.93;4.90;;;20.00;99.90;;;;;;5073676;28;20204;-72
2022/09/15 11:46:56;;;;;;;5.77;4.60;;;20.00;99.90;;;;;;5074593;28;20291;-71
2022/09/15 11:49:27;;;;;;;5.80;4.53;;;19.90;99.90;;;;;;5069488;28;20613;-70
2022/09/15 11:52:01;;;;;;;7.73;4.33;;;19.80;99.90;;;;;;5074010;28;20201;-71
2022/09/15 11:54:35;;;;;;;5.20;4.30;;;19.80;99.90;;;;;;5075187;28;20714;-71
2022/09/15 11:57:03;;;;;;;5.90;4.33;;;19.80;99.90;;;;;;5074637;28;20457;-71
2022/09/15 11:59:39;;;;;;;6.00;5.10;;;19.90;99.90;;;;;;5073251;28;20638;-71
2022/09/15 12:02:20;;;;;;;8.07;5.00;;;19.90;99.90;;;;;;5077845;28;20202;-71
2022/09/15 12:04:58;;;;;;;7.83;5.00;;;19.90;99.90;;;;;;5081807;28;20334;-72
2022/09/15 12:07:30;;;;;;;6.77;5.23;;;19.90;99.90;;;;;;5075483;28;20208;-71
2022/09/15 12:10:06;;;;;;;8.73;5.97;;;19.90;99.90;;;;;;5073930;28;20574;-70
2022/09/15 12:12:35;;;;;;;9.50;6.20;;;19.80;99.90;;;;;;5074602;28;20279;-72
2022/09/15 12:15:03;;;;;;;6.90;5.97;;;19.80;99.90;;;;;;5074172;28;20296;-70
2022/09/15 12:17:34;;;;;;;6.97;5.97;;;19.70;99.90;;;;;;5073805;28;20238;-72
2022/09/15 12:20:05;;;;;;;7.93;6.37;;;19.60;99.90;;;;;;5073602;28;20636;-71
2022/09/15 12:22:41;;;;;;;8.83;5.90;;;19.60;99.90;;;;;;5072786;28;20243;-71
2022/09/15 12:25:15;;;;;;;8.83;5.57;;;19.50;99.90;;;;;;5073460;28;20212;-72
2022/09/15 12:27:43;;;;;;;9.43;5.87;;;19.50;99.90;;;;;;5073462;28;20201;-72
2022/09/15 12:30:41;;;;;;;6.67;5.90;;;19.40;99.90;;;;;;5076598;28;20244;-72
2022/09/15 12:33:38;;;;;;;9.30;5.40;;;19.40;99.90;;;;;;5075643;28;20244;-70
2022/09/15 12:36:30;;;;;;;9.83;6.57;;;19.40;99.90;;;;;;5071535;28;20218;-70
2022/09/15 12:38:58;;;;;;;8.93;6.30;;;19.40;99.90;;;;;;5063582;28;20305;-71
2022/09/15 12:41:26;;;;;;;9.20;5.93;;;19.30;99.90;;;;;;5059752;28;20212;-72
2022/09/15 12:43:54;;;;;;;6.57;5.30;;;19.20;99.90;;;;;;5070882;28;20307;-71
2022/09/15 12:46:23;;;;;;;7.10;5.60;;;19.30;99.90;;;;;;5073244;28;20206;-71
2022/09/15 12:48:51;;;;;;;10.20;6.57;;;19.20;99.90;;;;;;5073725;28;20742;-71
2022/09/15 12:51:24;;;;;;;10.00;6.73;;;19.10;99.90;;;;;;5086236;28;20211;-72
2022/09/15 12:53:54;;;;;;;8.63;7.00;;;19.10;99.90;;;;;;5086212;28;20203;-72
2022/09/15 12:56:24;;;;;;;12.47;6.23;;;19.10;99.90;;;;;;5079617;28;20743;-71